sensor_id;sensor_type;location;lat;lon;timestamp;P1;durP1;ratioP1;P2;durP2;ratioP2
65009;SDS011;51556;50.002;22.014;2023-02-17T00:02:24;56.80;;;25.70;;
65009;SDS011;51556;50.002;22.014;2023-02-17T00:04:49;60.80;;;27.20;;
65009;SDS011;51556;50.002;22.014;2023-02-17T00:07:17;64.30;;;27.70;;
65009;SDS011;51556;50.002;22.014;2023-02-17T00:09:43;58.40;;;24.70;;
65009;SDS011;51556;50.002;22.014;2023-02-17T00:12:08;58.90;;;26.30;;
65009;SDS011;51556;50.002;22.014;2023-02-17T00:14:34;56.10;;;26.30;;
65009;SDS011;51556;50.002;22.014;2023-02-17T00:16:59;62.10;;;27.90;;
65009;SDS011;51556;50.002;22.014;2023-02-17T00:19:25;52.70;;;23.50;;
65009;SDS011;51556;50.002;22.014;2023-02-17T00:21:54;56.00;;;25.90;;
65009;SDS011;51556;50.002;22.014;2023-02-17T00:24:22;63.10;;;27.60;;
65009;SDS011;51556;50.002;22.014;2023-02-17T00:26:48;51.20;;;22.20;;
65009;SDS011;51556;50.002;22.014;2023-02-17T00:29:14;53.80;;;25.90;;
65009;SDS011;51556;50.002;22.014;2023-02-17T00:31:40;57.00;;;26.30;;
65009;SDS011;51556;50.002;22.014;2023-02-17T00:34:06;52.40;;;23.50;;
65009;SDS011;51556;50.002;22.014;2023-02-17T00:36:31;55.00;;;25.10;;
65009;SDS011;51556;50.002;22.014;2023-02-17T00:38:57;57.80;;;24.90;;
65009;SDS011;51556;50.002;22.014;2023-02-17T00:41:23;54.50;;;23.30;;
65009;SDS011;51556;50.002;22.014;2023-02-17T00:43:50;54.10;;;24.70;;
65009;SDS011;51556;50.002;22.014;2023-02-17T00:46:16;50.80;;;24.50;;
65009;SDS011;51556;50.002;22.014;2023-02-17T00:48:42;61.70;;;26.80;;
65009;SDS011;51556;50.002;22.014;2023-02-17T00:51:08;53.20;;;23.80;;
65009;SDS011;51556;50.002;22.014;2023-02-17T00:53:34;55.40;;;24.30;;
65009;SDS011;51556;50.002;22.014;2023-02-17T00:55:59;51.60;;;24.00;;
65009;SDS011;51556;50.002;22.014;2023-02-17T00:58:25;57.90;;;26.20;;
65009;SDS011;51556;50.002;22.014;2023-02-17T01:00:51;56.20;;;26.50;;
65009;SDS011;51556;50.002;22.014;2023-02-17T01:03:17;55.70;;;25.70;;
65009;SDS011;51556;50.002;22.014;2023-02-17T01:05:44;59.70;;;25.60;;
65009;SDS011;51556;50.002;22.014;2023-02-17T01:08:12;58.90;;;27.10;;
65009;SDS011;51556;50.002;22.014;2023-02-17T01:10:38;55.50;;;27.10;;
65009;SDS011;51556;50.002;22.014;2023-02-17T01:13:06;59.40;;;26.10;;
65009;SDS011;51556;50.002;22.014;2023-02-17T01:15:42;54.10;;;23.70;;
65009;SDS011;51556;50.002;22.014;2023-02-17T01:18:10;52.30;;;23.80;;
65009;SDS011;51556;50.002;22.014;2023-02-17T01:20:36;59.20;;;25.90;;
65009;SDS011;51556;50.002;22.014;2023-02-17T01:23:03;57.20;;;26.30;;
65009;SDS011;51556;50.002;22.014;2023-02-17T01:25:29;54.90;;;25.00;;
65009;SDS011;51556;50.002;22.014;2023-02-17T01:27:55;51.20;;;23.30;;
65009;SDS011;51556;50.002;22.014;2023-02-17T01:30:21;39.80;;;17.10;;
65009;SDS011;51556;50.002;22.014;2023-02-17T01:32:46;53.30;;;24.10;;
65009;SDS011;51556;50.002;22.014;2023-02-17T01:35:12;55.30;;;24.30;;
65009;SDS011;51556;50.002;22.014;2023-02-17T01:37:38;54.40;;;26.00;;
65009;SDS011;51556;50.002;22.014;2023-02-17T01:40:03;56.70;;;25.10;;
65009;SDS011;51556;50.002;22.014;2023-02-17T01:42:29;56.20;;;25.50;;
65009;SDS011;51556;50.002;22.014;2023-02-17T01:45:22;54.40;;;25.00;;
65009;SDS011;51556;50.002;22.014;2023-02-17T01:47:57;55.50;;;23.60;;
65009;SDS011;51556;50.002;22.014;2023-02-17T01:50:29;53.10;;;22.60;;
65009;SDS011;51556;50.002;22.014;2023-02-17T01:52:58;49.40;;;21.60;;
65009;SDS011;51556;50.002;22.014;2023-02-17T01:55:26;51.30;;;23.40;;
65009;SDS011;51556;50.002;22.014;2023-02-17T01:57:54;45.00;;;19.70;;
65009;SDS011;51556;50.002;22.014;2023-02-17T02:00:23;48.70;;;22.70;;
65009;SDS011;51556;50.002;22.014;2023-02-17T02:02:52;44.40;;;19.40;;
65009;SDS011;51556;50.002;22.014;2023-02-17T02:05:18;54.00;;;24.50;;
65009;SDS011;51556;50.002;22.014;2023-02-17T02:07:44;50.60;;;22.30;;
65009;SDS011;51556;50.002;22.014;2023-02-17T02:10:13;49.60;;;22.50;;
65009;SDS011;51556;50.002;22.014;2023-02-17T02:12:41;49.90;;;20.90;;
65009;SDS011;51556;50.002;22.014;2023-02-17T02:15:17;53.50;;;21.80;;
65009;SDS011;51556;50.002;22.014;2023-02-17T02:17:55;56.00;;;25.00;;
65009;SDS011;51556;50.002;22.014;2023-02-17T02:29:28;52.90;;;24.20;;
65009;SDS011;51556;50.002;22.014;2023-02-17T02:37:38;58.10;;;25.20;;
65009;SDS011;51556;50.002;22.014;2023-02-17T02:40:11;52.40;;;24.60;;
65009;SDS011;51556;50.002;22.014;2023-02-17T02:42:39;51.90;;;23.30;;
65009;SDS011;51556;50.002;22.014;2023-02-17T02:45:06;52.60;;;25.60;;
65009;SDS011;51556;50.002;22.014;2023-02-17T02:47:44;53.60;;;23.70;;
65009;SDS011;51556;50.002;22.014;2023-02-17T02:50:14;56.60;;;24.30;;
65009;SDS011;51556;50.002;22.014;2023-02-17T03:01:08;49.20;;;23.40;;
65009;SDS011;51556;50.002;22.014;2023-02-17T03:03:55;54.20;;;23.90;;
65009;SDS011;51556;50.002;22.014;2023-02-17T03:07:00;48.70;;;23.30;;
65009;SDS011;51556;50.002;22.014;2023-02-17T03:09:23;49.50;;;22.60;;
65009;SDS011;51556;50.002;22.014;2023-02-17T03:11:51;49.00;;;22.20;;
65009;SDS011;51556;50.002;22.014;2023-02-17T03:14:20;52.30;;;23.90;;
65009;SDS011;51556;50.002;22.014;2023-02-17T03:16:46;47.90;;;22.20;;
65009;SDS011;51556;50.002;22.014;2023-02-17T03:19:13;53.40;;;25.60;;
65009;SDS011;51556;50.002;22.014;2023-02-17T03:24:49;51.50;;;22.50;;
65009;SDS011;51556;50.002;22.014;2023-02-17T03:27:15;54.80;;;23.50;;
65009;SDS011;51556;50.002;22.014;2023-02-17T03:29:41;51.10;;;23.60;;
65009;SDS011;51556;50.002;22.014;2023-02-17T03:32:06;53.60;;;24.10;;
65009;SDS011;51556;50.002;22.014;2023-02-17T03:34:32;50.60;;;23.50;;
65009;SDS011;51556;50.002;22.014;2023-02-17T03:36:57;48.70;;;22.70;;
65009;SDS011;51556;50.002;22.014;2023-02-17T03:39:23;52.30;;;23.80;;
65009;SDS011;51556;50.002;22.014;2023-02-17T03:41:48;56.00;;;24.70;;
65009;SDS011;51556;50.002;22.014;2023-02-17T03:44:16;55.50;;;23.60;;
65009;SDS011;51556;50.002;22.014;2023-02-17T03:46:42;54.40;;;24.40;;
65009;SDS011;51556;50.002;22.014;2023-02-17T03:49:08;50.30;;;24.20;;
65009;SDS011;51556;50.002;22.014;2023-02-17T03:51:33;54.90;;;24.60;;
65009;SDS011;51556;50.002;22.014;2023-02-17T03:53:59;47.90;;;22.40;;
65009;SDS011;51556;50.002;22.014;2023-02-17T03:56:24;52.30;;;24.50;;
65009;SDS011;51556;50.002;22.014;2023-02-17T03:58:50;54.60;;;24.80;;
65009;SDS011;51556;50.002;22.014;2023-02-17T04:01:15;54.10;;;24.70;;
65009;SDS011;51556;50.002;22.014;2023-02-17T04:03:41;53.30;;;23.80;;
65009;SDS011;51556;50.002;22.014;2023-02-17T04:06:07;49.40;;;23.80;;
65009;SDS011;51556;50.002;22.014;2023-02-17T04:08:33;53.20;;;25.30;;
65009;SDS011;51556;50.002;22.014;2023-02-17T04:10:59;54.40;;;23.10;;
65009;SDS011;51556;50.002;22.014;2023-02-17T04:13:26;53.70;;;23.90;;
65009;SDS011;51556;50.002;22.014;2023-02-17T04:15:52;48.80;;;23.20;;
65009;SDS011;51556;50.002;22.014;2023-02-17T04:18:18;50.60;;;23.70;;
65009;SDS011;51556;50.002;22.014;2023-02-17T04:20:46;52.70;;;22.20;;
65009;SDS011;51556;50.002;22.014;2023-02-17T04:23:13;54.60;;;24.20;;
65009;SDS011;51556;50.002;22.014;2023-02-17T04:25:38;45.20;;;21.30;;
65009;SDS011;51556;50.002;22.014;2023-02-17T04:28:05;48.80;;;21.90;;
65009;SDS011;51556;50.002;22.014;2023-02-17T04:30:31;52.40;;;23.60;;
65009;SDS011;51556;50.002;22.014;2023-02-17T04:32:57;49.70;;;23.00;;
65009;SDS011;51556;50.002;22.014;2023-02-17T04:35:23;51.20;;;23.20;;
65009;SDS011;51556;50.002;22.014;2023-02-17T04:37:49;45.10;;;21.40;;
65009;SDS011;51556;50.002;22.014;2023-02-17T04:40:15;50.60;;;22.40;;
65009;SDS011;51556;50.002;22.014;2023-02-17T04:42:41;46.00;;;21.20;;
65009;SDS011;51556;50.002;22.014;2023-02-17T04:45:06;45.90;;;20.10;;
65009;SDS011;51556;50.002;22.014;2023-02-17T04:47:32;44.80;;;20.80;;
65009;SDS011;51556;50.002;22.014;2023-02-17T04:49:58;46.60;;;22.10;;
65009;SDS011;51556;50.002;22.014;2023-02-17T04:52:23;46.40;;;21.50;;
65009;SDS011;51556;50.002;22.014;2023-02-17T04:54:49;44.80;;;21.90;;
65009;SDS011;51556;50.002;22.014;2023-02-17T04:57:14;47.00;;;22.20;;
65009;SDS011;51556;50.002;22.014;2023-02-17T04:59:40;45.60;;;21.30;;
65009;SDS011;51556;50.002;22.014;2023-02-17T05:02:05;48.00;;;22.30;;
65009;SDS011;51556;50.002;22.014;2023-02-17T05:04:30;50.00;;;22.50;;
65009;SDS011;51556;50.002;22.014;2023-02-17T05:06:56;46.50;;;21.10;;
65009;SDS011;51556;50.002;22.014;2023-02-17T05:09:21;41.40;;;19.70;;
65009;SDS011;51556;50.002;22.014;2023-02-17T05:11:47;36.50;;;15.80;;
65009;SDS011;51556;50.002;22.014;2023-02-17T05:14:12;48.60;;;21.50;;
65009;SDS011;51556;50.002;22.014;2023-02-17T05:16:38;45.80;;;20.20;;
65009;SDS011;51556;50.002;22.014;2023-02-17T05:19:04;47.80;;;23.20;;
65009;SDS011;51556;50.002;22.014;2023-02-17T05:21:30;49.90;;;21.80;;
65009;SDS011;51556;50.002;22.014;2023-02-17T05:23:55;41.40;;;19.30;;
65009;SDS011;51556;50.002;22.014;2023-02-17T05:26:21;49.60;;;22.20;;
65009;SDS011;51556;50.002;22.014;2023-02-17T05:28:46;38.80;;;17.50;;
65009;SDS011;51556;50.002;22.014;2023-02-17T05:31:11;44.80;;;20.80;;
65009;SDS011;51556;50.002;22.014;2023-02-17T05:33:37;47.40;;;22.90;;
65009;SDS011;51556;50.002;22.014;2023-02-17T05:36:03;47.20;;;21.60;;
65009;SDS011;51556;50.002;22.014;2023-02-17T05:38:30;49.50;;;23.60;;
65009;SDS011;51556;50.002;22.014;2023-02-17T05:40:56;47.60;;;22.00;;
65009;SDS011;51556;50.002;22.014;2023-02-17T05:43:21;47.30;;;22.50;;
65009;SDS011;51556;50.002;22.014;2023-02-17T05:45:46;51.50;;;22.80;;
65009;SDS011;51556;50.002;22.014;2023-02-17T05:48:12;46.80;;;22.00;;
65009;SDS011;51556;50.002;22.014;2023-02-17T05:50:38;46.80;;;21.70;;
65009;SDS011;51556;50.002;22.014;2023-02-17T05:53:03;47.40;;;21.00;;
65009;SDS011;51556;50.002;22.014;2023-02-17T05:55:28;47.20;;;22.00;;
65009;SDS011;51556;50.002;22.014;2023-02-17T05:57:54;48.40;;;22.50;;
65009;SDS011;51556;50.002;22.014;2023-02-17T06:00:19;48.60;;;22.10;;
65009;SDS011;51556;50.002;22.014;2023-02-17T06:02:45;47.10;;;22.00;;
65009;SDS011;51556;50.002;22.014;2023-02-17T06:05:11;38.90;;;18.40;;
65009;SDS011;51556;50.002;22.014;2023-02-17T06:07:36;51.90;;;21.50;;
65009;SDS011;51556;50.002;22.014;2023-02-17T06:10:02;45.70;;;21.30;;
65009;SDS011;51556;50.002;22.014;2023-02-17T06:12:27;46.90;;;23.20;;
65009;SDS011;51556;50.002;22.014;2023-02-17T06:14:53;41.10;;;19.40;;
65009;SDS011;51556;50.002;22.014;2023-02-17T06:17:18;46.10;;;21.20;;
65009;SDS011;51556;50.002;22.014;2023-02-17T06:19:44;46.30;;;20.80;;
65009;SDS011;51556;50.002;22.014;2023-02-17T06:22:09;47.30;;;20.00;;
65009;SDS011;51556;50.002;22.014;2023-02-17T06:24:34;49.10;;;22.00;;
65009;SDS011;51556;50.002;22.014;2023-02-17T06:27:00;47.90;;;23.20;;
65009;SDS011;51556;50.002;22.014;2023-02-17T06:29:26;46.70;;;22.30;;
65009;SDS011;51556;50.002;22.014;2023-02-17T06:31:52;45.50;;;21.00;;
65009;SDS011;51556;50.002;22.014;2023-02-17T06:34:18;43.40;;;19.80;;
65009;SDS011;51556;50.002;22.014;2023-02-17T06:36:43;49.10;;;20.80;;
65009;SDS011;51556;50.002;22.014;2023-02-17T06:39:09;43.60;;;20.40;;
65009;SDS011;51556;50.002;22.014;2023-02-17T06:41:34;42.90;;;20.20;;
65009;SDS011;51556;50.002;22.014;2023-02-17T06:43:59;44.10;;;19.90;;
65009;SDS011;51556;50.002;22.014;2023-02-17T06:46:25;46.00;;;22.50;;
65009;SDS011;51556;50.002;22.014;2023-02-17T06:48:50;44.30;;;20.10;;
65009;SDS011;51556;50.002;22.014;2023-02-17T06:51:16;39.70;;;18.90;;
65009;SDS011;51556;50.002;22.014;2023-02-17T06:53:41;47.40;;;20.50;;
65009;SDS011;51556;50.002;22.014;2023-02-17T06:56:07;49.20;;;22.30;;
65009;SDS011;51556;50.002;22.014;2023-02-17T06:58:32;45.10;;;20.20;;
65009;SDS011;51556;50.002;22.014;2023-02-17T07:00:59;43.20;;;19.90;;
65009;SDS011;51556;50.002;22.014;2023-02-17T07:03:25;47.40;;;22.90;;
65009;SDS011;51556;50.002;22.014;2023-02-17T07:05:51;53.00;;;22.70;;
65009;SDS011;51556;50.002;22.014;2023-02-17T07:08:21;51.90;;;24.30;;
65009;SDS011;51556;50.002;22.014;2023-02-17T07:10:46;57.50;;;24.00;;
65009;SDS011;51556;50.002;22.014;2023-02-17T07:13:12;44.30;;;20.70;;
65009;SDS011;51556;50.002;22.014;2023-02-17T07:15:37;54.40;;;23.10;;
65009;SDS011;51556;50.002;22.014;2023-02-17T07:18:02;51.90;;;22.40;;
65009;SDS011;51556;50.002;22.014;2023-02-17T07:20:28;54.60;;;21.30;;
65009;SDS011;51556;50.002;22.014;2023-02-17T07:22:55;54.00;;;24.00;;
65009;SDS011;51556;50.002;22.014;2023-02-17T07:25:21;44.50;;;21.30;;
65009;SDS011;51556;50.002;22.014;2023-02-17T07:27:46;43.80;;;20.60;;
65009;SDS011;51556;50.002;22.014;2023-02-17T07:30:12;43.90;;;20.10;;
65009;SDS011;51556;50.002;22.014;2023-02-17T07:32:37;48.20;;;22.80;;
65009;SDS011;51556;50.002;22.014;2023-02-17T07:35:03;44.30;;;21.20;;
65009;SDS011;51556;50.002;22.014;2023-02-17T07:37:29;44.00;;;20.00;;
65009;SDS011;51556;50.002;22.014;2023-02-17T07:39:54;45.60;;;21.30;;
65009;SDS011;51556;50.002;22.014;2023-02-17T07:42:21;44.70;;;21.90;;
65009;SDS011;51556;50.002;22.014;2023-02-17T07:44:46;45.00;;;20.20;;
65009;SDS011;51556;50.002;22.014;2023-02-17T07:47:12;40.20;;;21.60;;
65009;SDS011;51556;50.002;22.014;2023-02-17T07:49:37;42.50;;;21.40;;
65009;SDS011;51556;50.002;22.014;2023-02-17T07:52:03;46.40;;;22.90;;
65009;SDS011;51556;50.002;22.014;2023-02-17T07:54:28;45.20;;;19.80;;
65009;SDS011;51556;50.002;22.014;2023-02-17T07:56:54;40.40;;;19.70;;
65009;SDS011;51556;50.002;22.014;2023-02-17T07:59:19;44.00;;;19.50;;
65009;SDS011;51556;50.002;22.014;2023-02-17T08:01:45;41.00;;;19.70;;
65009;SDS011;51556;50.002;22.014;2023-02-17T08:04:10;45.70;;;21.40;;
65009;SDS011;51556;50.002;22.014;2023-02-17T08:06:36;45.50;;;21.80;;
65009;SDS011;51556;50.002;22.014;2023-02-17T08:09:04;41.00;;;20.10;;
65009;SDS011;51556;50.002;22.014;2023-02-17T08:11:48;45.10;;;20.90;;
65009;SDS011;51556;50.002;22.014;2023-02-17T08:14:32;48.30;;;21.80;;
65009;SDS011;51556;50.002;22.014;2023-02-17T08:16:58;47.70;;;21.40;;
65009;SDS011;51556;50.002;22.014;2023-02-17T08:19:24;46.20;;;21.90;;
65009;SDS011;51556;50.002;22.014;2023-02-17T08:21:50;44.60;;;21.80;;
65009;SDS011;51556;50.002;22.014;2023-02-17T08:24:16;55.60;;;24.60;;
65009;SDS011;51556;50.002;22.014;2023-02-17T08:26:43;40.00;;;19.30;;
65009;SDS011;51556;50.002;22.014;2023-02-17T08:29:09;46.40;;;21.70;;
65009;SDS011;51556;50.002;22.014;2023-02-17T08:31:36;40.80;;;19.80;;
65009;SDS011;51556;50.002;22.014;2023-02-17T08:34:03;49.30;;;20.10;;
65009;SDS011;51556;50.002;22.014;2023-02-17T08:36:30;38.30;;;16.60;;
65009;SDS011;51556;50.002;22.014;2023-02-17T08:38:56;47.50;;;22.00;;
65009;SDS011;51556;50.002;22.014;2023-02-17T08:41:27;39.40;;;18.80;;
65009;SDS011;51556;50.002;22.014;2023-02-17T08:43:55;35.00;;;18.00;;
65009;SDS011;51556;50.002;22.014;2023-02-17T08:46:21;39.10;;;17.60;;
65009;SDS011;51556;50.002;22.014;2023-02-17T08:48:47;42.50;;;18.20;;
65009;SDS011;51556;50.002;22.014;2023-02-17T08:51:15;40.80;;;18.80;;
65009;SDS011;51556;50.002;22.014;2023-02-17T08:53:42;47.10;;;20.50;;
65009;SDS011;51556;50.002;22.014;2023-02-17T08:56:09;41.30;;;18.40;;
65009;SDS011;51556;50.002;22.014;2023-02-17T08:58:38;36.20;;;16.80;;
65009;SDS011;51556;50.002;22.014;2023-02-17T09:01:03;42.70;;;20.50;;
65009;SDS011;51556;50.002;22.014;2023-02-17T09:03:29;36.60;;;18.30;;
65009;SDS011;51556;50.002;22.014;2023-02-17T09:05:57;48.20;;;20.80;;
65009;SDS011;51556;50.002;22.014;2023-02-17T09:08:23;44.20;;;20.60;;
65009;SDS011;51556;50.002;22.014;2023-02-17T09:10:50;38.30;;;19.30;;
65009;SDS011;51556;50.002;22.014;2023-02-17T09:13:15;46.90;;;21.10;;
65009;SDS011;51556;50.002;22.014;2023-02-17T09:15:41;41.10;;;19.60;;
65009;SDS011;51556;50.002;22.014;2023-02-17T09:18:07;38.20;;;18.20;;
65009;SDS011;51556;50.002;22.014;2023-02-17T09:20:32;42.30;;;18.50;;
65009;SDS011;51556;50.002;22.014;2023-02-17T09:22:59;43.30;;;19.10;;
65009;SDS011;51556;50.002;22.014;2023-02-17T09:25:25;40.80;;;19.50;;
65009;SDS011;51556;50.002;22.014;2023-02-17T09:27:50;35.10;;;17.50;;
65009;SDS011;51556;50.002;22.014;2023-02-17T09:30:16;42.20;;;20.30;;
65009;SDS011;51556;50.002;22.014;2023-02-17T09:32:42;40.50;;;20.30;;
65009;SDS011;51556;50.002;22.014;2023-02-17T09:35:10;42.20;;;20.50;;
65009;SDS011;51556;50.002;22.014;2023-02-17T09:37:36;39.70;;;18.70;;
65009;SDS011;51556;50.002;22.014;2023-02-17T09:40:01;39.70;;;19.10;;
65009;SDS011;51556;50.002;22.014;2023-02-17T09:42:28;45.30;;;21.20;;
65009;SDS011;51556;50.002;22.014;2023-02-17T09:44:58;35.30;;;17.50;;
65009;SDS011;51556;50.002;22.014;2023-02-17T09:47:36;43.80;;;20.50;;
65009;SDS011;51556;50.002;22.014;2023-02-17T09:50:07;39.10;;;19.20;;
65009;SDS011;51556;50.002;22.014;2023-02-17T09:55:40;46.00;;;21.60;;
65009;SDS011;51556;50.002;22.014;2023-02-17T09:58:12;41.00;;;18.50;;
65009;SDS011;51556;50.002;22.014;2023-02-17T10:00:46;44.50;;;21.50;;
65009;SDS011;51556;50.002;22.014;2023-02-17T10:08:50;40.20;;;18.40;;
65009;SDS011;51556;50.002;22.014;2023-02-17T10:11:27;44.00;;;21.50;;
65009;SDS011;51556;50.002;22.014;2023-02-17T10:14:04;51.20;;;23.80;;
65009;SDS011;51556;50.002;22.014;2023-02-17T10:16:43;42.30;;;21.30;;
65009;SDS011;51556;50.002;22.014;2023-02-17T10:19:14;49.60;;;22.80;;
65009;SDS011;51556;50.002;22.014;2023-02-17T10:21:46;50.00;;;24.00;;
65009;SDS011;51556;50.002;22.014;2023-02-17T10:24:20;40.70;;;20.20;;
65009;SDS011;51556;50.002;22.014;2023-02-17T10:26:48;41.20;;;19.70;;
65009;SDS011;51556;50.002;22.014;2023-02-17T10:32:24;41.60;;;20.00;;
65009;SDS011;51556;50.002;22.014;2023-02-17T10:35:01;44.70;;;22.40;;
65009;SDS011;51556;50.002;22.014;2023-02-17T10:37:43;42.50;;;21.80;;
65009;SDS011;51556;50.002;22.014;2023-02-17T10:40:11;44.10;;;20.00;;
65009;SDS011;51556;50.002;22.014;2023-02-17T10:42:46;43.80;;;23.10;;
65009;SDS011;51556;50.002;22.014;2023-02-17T10:47:41;39.80;;;21.10;;
65009;SDS011;51556;50.002;22.014;2023-02-17T10:50:21;42.70;;;19.20;;
65009;SDS011;51556;50.002;22.014;2023-02-17T10:52:47;43.90;;;19.80;;
65009;SDS011;51556;50.002;22.014;2023-02-17T10:57:46;42.70;;;19.60;;
65009;SDS011;51556;50.002;22.014;2023-02-17T11:00:14;44.20;;;22.20;;
65009;SDS011;51556;50.002;22.014;2023-02-17T11:02:42;40.90;;;20.30;;
65009;SDS011;51556;50.002;22.014;2023-02-17T11:05:21;42.90;;;22.40;;
65009;SDS011;51556;50.002;22.014;2023-02-17T11:07:56;40.40;;;21.90;;
65009;SDS011;51556;50.002;22.014;2023-02-17T11:12:58;38.30;;;19.40;;
65009;SDS011;51556;50.002;22.014;2023-02-17T11:15:41;48.40;;;22.90;;
65009;SDS011;51556;50.002;22.014;2023-02-17T11:18:19;41.70;;;19.20;;
65009;SDS011;51556;50.002;22.014;2023-02-17T11:20:48;43.80;;;20.30;;
65009;SDS011;51556;50.002;22.014;2023-02-17T11:25:39;46.10;;;21.10;;
65009;SDS011;51556;50.002;22.014;2023-02-17T11:28:20;40.80;;;19.20;;
65009;SDS011;51556;50.002;22.014;2023-02-17T11:30:52;39.60;;;19.80;;
65009;SDS011;51556;50.002;22.014;2023-02-17T11:33:43;40.00;;;20.00;;
65009;SDS011;51556;50.002;22.014;2023-02-17T11:36:19;39.60;;;20.00;;
65009;SDS011;51556;50.002;22.014;2023-02-17T11:38:47;38.60;;;18.70;;
65009;SDS011;51556;50.002;22.014;2023-02-17T11:41:12;38.80;;;19.50;;
65009;SDS011;51556;50.002;22.014;2023-02-17T11:43:38;40.50;;;20.70;;
65009;SDS011;51556;50.002;22.014;2023-02-17T11:49:01;44.50;;;22.20;;
65009;SDS011;51556;50.002;22.014;2023-02-17T12:00:44;46.10;;;24.00;;
65009;SDS011;51556;50.002;22.014;2023-02-17T12:14:42;48.50;;;23.20;;
65009;SDS011;51556;50.002;22.014;2023-02-17T12:23:05;48.70;;;24.40;;
65009;SDS011;51556;50.002;22.014;2023-02-17T12:36:02;48.70;;;23.60;;
65009;SDS011;51556;50.002;22.014;2023-02-17T12:38:32;49.10;;;24.30;;
65009;SDS011;51556;50.002;22.014;2023-02-17T12:41:12;49.70;;;25.10;;
65009;SDS011;51556;50.002;22.014;2023-02-17T12:49:11;57.40;;;26.80;;
65009;SDS011;51556;50.002;22.014;2023-02-17T12:51:51;49.90;;;26.90;;
65009;SDS011;51556;50.002;22.014;2023-02-17T12:56:58;51.30;;;25.90;;
65009;SDS011;51556;50.002;22.014;2023-02-17T12:59:34;54.80;;;27.80;;
65009;SDS011;51556;50.002;22.014;2023-02-17T13:02:05;49.90;;;25.10;;
65009;SDS011;51556;50.002;22.014;2023-02-17T13:04:34;51.00;;;25.20;;
65009;SDS011;51556;50.002;22.014;2023-02-17T13:09:33;55.60;;;27.70;;
65009;SDS011;51556;50.002;22.014;2023-02-17T13:12:08;53.00;;;25.30;;
65009;SDS011;51556;50.002;22.014;2023-02-17T13:14:44;46.20;;;23.60;;
65009;SDS011;51556;50.002;22.014;2023-02-17T13:17:24;54.50;;;26.40;;
65009;SDS011;51556;50.002;22.014;2023-02-17T13:22:32;50.50;;;24.20;;
65009;SDS011;51556;50.002;22.014;2023-02-17T13:24:58;51.40;;;23.60;;
65009;SDS011;51556;50.002;22.014;2023-02-17T13:32:37;49.80;;;23.10;;
65009;SDS011;51556;50.002;22.014;2023-02-17T13:37:43;52.40;;;26.20;;
65009;SDS011;51556;50.002;22.014;2023-02-17T13:42:45;53.90;;;25.50;;
65009;SDS011;51556;50.002;22.014;2023-02-17T13:45:19;44.90;;;23.60;;
65009;SDS011;51556;50.002;22.014;2023-02-17T13:47:50;47.70;;;22.70;;
65009;SDS011;51556;50.002;22.014;2023-02-17T13:52:52;48.80;;;24.70;;
65009;SDS011;51556;50.002;22.014;2023-02-17T13:55:18;49.60;;;25.70;;
65009;SDS011;51556;50.002;22.014;2023-02-17T13:57:44;50.60;;;25.60;;
65009;SDS011;51556;50.002;22.014;2023-02-17T14:02:51;52.40;;;25.30;;
65009;SDS011;51556;50.002;22.014;2023-02-17T14:05:20;50.80;;;26.70;;
65009;SDS011;51556;50.002;22.014;2023-02-17T14:10:21;48.90;;;24.50;;
65009;SDS011;51556;50.002;22.014;2023-02-17T14:12:49;48.40;;;24.60;;
65009;SDS011;51556;50.002;22.014;2023-02-17T14:15:16;45.30;;;22.90;;
65009;SDS011;51556;50.002;22.014;2023-02-17T14:17:44;47.40;;;25.60;;
65009;SDS011;51556;50.002;22.014;2023-02-17T14:20:26;46.80;;;23.20;;
65009;SDS011;51556;50.002;22.014;2023-02-17T14:25:32;45.00;;;23.60;;
65009;SDS011;51556;50.002;22.014;2023-02-17T14:28:00;46.90;;;23.90;;
65009;SDS011;51556;50.002;22.014;2023-02-17T14:35:48;43.70;;;21.30;;
65009;SDS011;51556;50.002;22.014;2023-02-17T14:38:21;47.00;;;24.80;;
65009;SDS011;51556;50.002;22.014;2023-02-17T14:40:49;42.70;;;21.80;;
65009;SDS011;51556;50.002;22.014;2023-02-17T14:43:16;44.30;;;23.90;;
65009;SDS011;51556;50.002;22.014;2023-02-17T14:45:41;42.90;;;22.60;;
65009;SDS011;51556;50.002;22.014;2023-02-17T14:48:07;44.00;;;21.90;;
65009;SDS011;51556;50.002;22.014;2023-02-17T14:50:33;44.00;;;22.30;;
65009;SDS011;51556;50.002;22.014;2023-02-17T14:52:59;43.00;;;22.10;;
65009;SDS011;51556;50.002;22.014;2023-02-17T14:57:58;45.10;;;23.00;;
65009;SDS011;51556;50.002;22.014;2023-02-17T15:00:24;46.50;;;23.50;;
65009;SDS011;51556;50.002;22.014;2023-02-17T15:02:49;40.90;;;20.90;;
65009;SDS011;51556;50.002;22.014;2023-02-17T15:05:16;42.10;;;21.00;;
65009;SDS011;51556;50.002;22.014;2023-02-17T15:07:42;35.40;;;18.30;;
65009;SDS011;51556;50.002;22.014;2023-02-17T15:10:17;41.30;;;22.20;;
65009;SDS011;51556;50.002;22.014;2023-02-17T15:12:46;42.80;;;22.00;;
65009;SDS011;51556;50.002;22.014;2023-02-17T15:15:15;38.40;;;20.10;;
65009;SDS011;51556;50.002;22.014;2023-02-17T15:17:42;40.40;;;19.50;;
65009;SDS011;51556;50.002;22.014;2023-02-17T15:20:07;41.80;;;22.50;;
65009;SDS011;51556;50.002;22.014;2023-02-17T15:22:34;42.50;;;22.20;;
65009;SDS011;51556;50.002;22.014;2023-02-17T15:25:02;32.30;;;18.00;;
65009;SDS011;51556;50.002;22.014;2023-02-17T15:27:33;33.90;;;19.70;;
65009;SDS011;51556;50.002;22.014;2023-02-17T15:29:59;36.60;;;18.80;;
65009;SDS011;51556;50.002;22.014;2023-02-17T15:32:24;37.00;;;17.70;;
65009;SDS011;51556;50.002;22.014;2023-02-17T15:34:50;38.90;;;20.30;;
65009;SDS011;51556;50.002;22.014;2023-02-17T15:37:15;39.70;;;21.70;;
65009;SDS011;51556;50.002;22.014;2023-02-17T15:39:41;38.10;;;21.90;;
65009;SDS011;51556;50.002;22.014;2023-02-17T15:42:09;42.30;;;20.70;;
65009;SDS011;51556;50.002;22.014;2023-02-17T15:44:42;39.10;;;21.60;;
65009;SDS011;51556;50.002;22.014;2023-02-17T15:47:12;42.10;;;21.70;;
65009;SDS011;51556;50.002;22.014;2023-02-17T15:49:40;35.70;;;19.20;;
65009;SDS011;51556;50.002;22.014;2023-02-17T15:52:09;39.80;;;19.80;;
65009;SDS011;51556;50.002;22.014;2023-02-17T15:54:42;40.50;;;20.70;;
65009;SDS011;51556;50.002;22.014;2023-02-17T15:57:11;40.10;;;20.30;;
65009;SDS011;51556;50.002;22.014;2023-02-17T15:59:44;41.20;;;20.80;;
65009;SDS011;51556;50.002;22.014;2023-02-17T16:02:21;41.20;;;21.90;;
65009;SDS011;51556;50.002;22.014;2023-02-17T16:04:48;43.80;;;22.30;;
65009;SDS011;51556;50.002;22.014;2023-02-17T16:07:13;42.30;;;22.40;;
65009;SDS011;51556;50.002;22.014;2023-02-17T16:09:39;41.80;;;21.00;;
65009;SDS011;51556;50.002;22.014;2023-02-17T16:12:04;39.40;;;20.60;;
65009;SDS011;51556;50.002;22.014;2023-02-17T16:14:39;40.10;;;20.10;;
65009;SDS011;51556;50.002;22.014;2023-02-17T16:17:08;43.50;;;22.30;;
65009;SDS011;51556;50.002;22.014;2023-02-17T16:19:37;42.70;;;20.20;;
65009;SDS011;51556;50.002;22.014;2023-02-17T16:22:03;45.00;;;21.80;;
65009;SDS011;51556;50.002;22.014;2023-02-17T16:24:28;41.10;;;20.90;;